createdAt,value
2018-02-26T00:00:38.413Z,71.80
2018-02-26T00:03:07.094Z,72.60
2018-02-26T00:05:35.811Z,73.40
2018-02-26T00:08:05.246Z,72.60
2018-02-26T00:10:33.929Z,72.60
2018-02-26T00:13:02.670Z,72.50
2018-02-26T00:15:31.365Z,72.20
2018-02-26T00:18:00.098Z,70.40
2018-02-26T00:20:28.816Z,71.70
2018-02-26T00:22:58.269Z,70.40
2018-02-26T00:25:27.132Z,70.50
2018-02-26T00:27:56.025Z,70.20
2018-02-26T00:30:24.739Z,71.50
2018-02-26T00:32:54.221Z,70.30
2018-02-26T00:35:22.906Z,70.30
2018-02-26T00:37:51.573Z,70.70
2018-02-26T00:40:20.266Z,71.00
2018-02-26T00:42:48.789Z,71.50
2018-02-26T00:45:18.243Z,71.90
2018-02-26T00:47:46.921Z,71.80
2018-02-26T00:50:15.578Z,71.10
2018-02-26T00:52:44.261Z,69.50
2018-02-26T00:55:12.974Z,69.70
2018-02-26T00:57:41.677Z,70.30
2018-02-26T01:00:10.717Z,70.60
2018-02-26T01:02:40.221Z,69.40
2018-02-26T01:05:09.677Z,68.90
2018-02-26T01:07:38.381Z,68.90
2018-02-26T01:10:07.057Z,68.20
2018-02-26T01:12:35.761Z,68.10
2018-02-26T01:15:04.086Z,69.20
2018-02-26T01:17:32.785Z,70.50
2018-02-26T01:20:01.540Z,68.00
2018-02-26T01:22:30.988Z,68.60
2018-02-26T01:24:59.646Z,68.60
2018-02-26T01:27:28.406Z,69.30
2018-02-26T01:29:57.166Z,69.50
2018-02-26T01:32:25.825Z,70.00
2018-02-26T01:34:54.497Z,71.20
2018-02-26T01:37:23.198Z,71.10
2018-02-26T01:39:51.910Z,70.30
2018-02-26T01:42:20.585Z,68.80
2018-02-26T01:44:49.278Z,68.70
2018-02-26T01:47:17.982Z,68.40
2018-02-26T01:49:46.673Z,67.80
2018-02-26T01:52:15.360Z,67.50
2018-02-26T01:54:44.040Z,67.80
2018-02-26T01:57:12.713Z,67.70
2018-02-26T01:59:41.449Z,68.40
2018-02-26T02:02:10.939Z,67.10
2018-02-26T02:04:40.404Z,66.60
2018-02-26T02:07:09.101Z,66.60
2018-02-26T02:09:37.805Z,65.10
2018-02-26T02:12:06.266Z,65.70
2018-02-26T02:14:35.013Z,66.10
2018-02-26T02:17:04.509Z,66.50
2018-02-26T02:19:33.960Z,66.50
2018-02-26T02:22:02.654Z,66.60
2018-02-26T02:24:31.401Z,65.60
2018-02-26T02:27:00.894Z,62.60
2018-02-26T02:29:30.399Z,60.40
2018-02-26T02:31:59.092Z,60.30
2018-02-26T02:34:28.812Z,58.70
2018-02-26T02:36:58.300Z,58.50
2018-02-26T02:39:27.822Z,58.20
2018-02-26T02:41:57.267Z,58.10
2018-02-26T02:44:26.014Z,58.00
2018-02-26T02:46:54.938Z,57.70
2018-02-26T02:49:23.654Z,57.30
2018-02-26T02:51:52.346Z,57.00
2018-02-26T02:54:21.034Z,56.90
2018-02-26T02:56:49.746Z,56.80
2018-02-26T02:59:19.196Z,56.80
2018-02-26T03:01:47.861Z,56.80
2018-02-26T03:04:16.559Z,56.60
2018-02-26T03:06:45.282Z,56.60
2018-02-26T03:09:13.985Z,56.90
2018-02-26T03:11:42.650Z,56.70
2018-02-26T03:14:11.338Z,56.40
2018-02-26T03:16:40.046Z,56.00
2018-02-26T03:19:08.706Z,56.20
2018-02-26T03:21:37.445Z,56.30
2018-02-26T03:24:06.170Z,55.80
2018-02-26T03:26:34.921Z,55.80
2018-02-26T03:29:03.624Z,56.70
2018-02-26T03:31:32.387Z,57.50
2018-02-26T03:34:01.887Z,57.10
2018-02-26T03:36:30.605Z,57.00
2018-02-26T03:38:59.418Z,58.30
2018-02-26T03:41:28.102Z,58.50
2018-02-26T03:43:57.638Z,58.50
2018-02-26T03:46:26.304Z,58.90
2018-02-26T03:48:55.764Z,58.50
2018-02-26T03:51:25.257Z,59.10
2018-02-26T03:53:54.726Z,58.80
2018-02-26T03:56:23.440Z,58.80
2018-02-26T03:58:52.184Z,58.20
2018-02-26T04:01:20.896Z,57.80
2018-02-26T04:03:49.942Z,57.60
2018-02-26T04:06:18.610Z,57.10
2018-02-26T04:08:47.704Z,56.90
2018-02-26T04:11:17.158Z,56.80
2018-02-26T04:13:45.861Z,56.70
2018-02-26T04:16:14.979Z,56.80
2018-02-26T04:18:43.338Z,56.70
2018-02-26T04:21:12.039Z,56.70
2018-02-26T04:23:40.741Z,56.70
2018-02-26T04:26:09.449Z,56.40
2018-02-26T04:28:38.150Z,56.50
2018-02-26T04:31:06.833Z,56.10
2018-02-26T04:33:35.930Z,56.30
2018-02-26T04:36:04.905Z,56.50
2018-02-26T04:38:34.403Z,56.40
2018-02-26T04:41:03.914Z,56.30
2018-02-26T04:43:33.357Z,56.20
2018-02-26T04:46:02.082Z,56.20
2018-02-26T04:48:30.769Z,56.00
2018-02-26T04:50:59.467Z,56.20
2018-02-26T04:53:28.209Z,56.10
2018-02-26T04:55:56.929Z,55.70
2018-02-26T04:58:25.615Z,55.60
2018-02-26T05:00:54.404Z,55.50
2018-02-26T05:03:23.104Z,55.40
2018-02-26T05:05:52.603Z,55.10
2018-02-26T05:08:21.289Z,55.10
2018-02-26T05:10:50.034Z,55.10
2018-02-26T05:13:18.580Z,55.30
2018-02-26T05:15:48.010Z,55.30
2018-02-26T05:18:16.757Z,55.20
2018-02-26T05:20:45.457Z,55.10
2018-02-26T05:23:14.900Z,55.20
2018-02-26T05:25:43.683Z,55.20
2018-02-26T05:28:12.388Z,54.80
2018-02-26T05:30:41.080Z,54.50
2018-02-26T05:33:09.841Z,54.50
2018-02-26T05:35:38.585Z,54.40
2018-02-26T05:38:07.703Z,54.60
2018-02-26T05:40:37.194Z,54.30
2018-02-26T05:43:06.146Z,54.30
2018-02-26T05:45:35.264Z,54.30
2018-02-26T05:48:04.249Z,54.30
2018-02-26T05:50:33.254Z,54.60
2018-02-26T05:53:02.115Z,54.50
2018-02-26T05:55:30.546Z,54.60
2018-02-26T05:58:00.598Z,53.90
2018-02-26T06:00:29.566Z,53.80
2018-02-26T06:02:59.346Z,54.00
2018-02-26T06:05:28.301Z,54.00
2018-02-26T06:08:04.490Z,53.50
2018-02-26T06:10:35.662Z,53.70
2018-02-26T06:13:04.377Z,53.00
2018-02-26T06:15:33.677Z,52.10
2018-02-26T06:18:02.666Z,52.10
2018-02-26T06:20:31.734Z,52.50
2018-02-26T06:23:00.570Z,52.40
2018-02-26T06:25:29.523Z,52.10
2018-02-26T06:27:58.410Z,52.60
2018-02-26T06:30:28.126Z,52.10
2018-02-26T06:35:38.893Z,51.40
2018-02-26T06:38:07.907Z,50.50
2018-02-26T06:40:36.863Z,50.50
2018-02-26T06:43:05.751Z,49.80
2018-02-26T06:45:35.251Z,49.90
2018-02-26T06:48:03.943Z,49.50
2018-02-26T06:50:33.384Z,48.80
2018-02-26T06:53:02.134Z,48.80
2018-02-26T06:55:30.860Z,48.60
2018-02-26T06:57:59.616Z,47.80
2018-02-26T07:00:28.344Z,47.90
2018-02-26T07:02:57.022Z,46.60
2018-02-26T07:05:25.753Z,47.30
2018-02-26T07:07:54.470Z,47.20
2018-02-26T07:10:23.337Z,47.20
2018-02-26T07:12:52.158Z,46.40
2018-02-26T07:15:21.022Z,46.30
2018-02-26T07:17:49.898Z,45.20
2018-02-26T07:20:18.581Z,44.90
2018-02-26T07:22:47.518Z,44.90
2018-02-26T07:25:16.493Z,45.20
2018-02-26T07:27:45.166Z,43.40
2018-02-26T07:43:28.678Z,40.00
2018-02-26T07:45:58.163Z,41.00
2018-02-26T07:48:26.829Z,40.90
2018-02-26T07:50:55.516Z,41.90
2018-02-26T07:53:24.202Z,41.50
2018-02-26T07:55:52.890Z,37.80
2018-02-26T07:58:21.557Z,37.80
2018-02-26T08:00:50.073Z,36.20
2018-02-26T08:03:18.744Z,35.80
2018-02-26T08:05:47.411Z,34.90
2018-02-26T08:08:16.301Z,35.20
2018-02-26T08:10:45.737Z,36.50
2018-02-26T08:13:14.430Z,36.30
2018-02-26T08:15:42.772Z,36.40
2018-02-26T08:18:11.426Z,33.90
2018-02-26T08:20:40.146Z,31.40
2018-02-26T08:23:08.809Z,30.00
2018-02-26T08:25:37.478Z,28.00
2018-02-26T08:28:06.941Z,26.30
2018-02-26T08:30:35.630Z,26.30
2018-02-26T08:33:04.362Z,26.40
2018-02-26T08:35:33.829Z,25.10
2018-02-26T08:38:02.808Z,25.10
2018-02-26T08:40:31.487Z,26.50
2018-02-26T08:43:00.167Z,26.20
2018-02-26T08:45:28.882Z,27.20
2018-02-26T08:47:57.556Z,27.30
2018-02-26T08:50:26.229Z,27.00
2018-02-26T08:52:54.941Z,25.70
2018-02-26T08:55:23.654Z,26.00
2018-02-26T08:57:53.110Z,24.70
2018-02-26T09:00:21.780Z,24.70
2018-02-26T09:02:50.452Z,26.00
2018-02-26T09:05:19.169Z,25.00
2018-02-26T09:07:47.825Z,22.90
2018-02-26T09:10:16.512Z,23.60
2018-02-26T09:12:45.371Z,22.50
2018-02-26T09:15:14.797Z,22.10
2018-02-26T09:17:43.481Z,22.10
2018-02-26T09:20:12.932Z,21.60
2018-02-26T09:22:41.639Z,21.60
2018-02-26T09:25:10.332Z,23.70
2018-02-26T09:27:39.001Z,25.00
2018-02-26T09:30:07.677Z,25.60
2018-02-26T09:32:36.345Z,25.80
2018-02-26T09:35:05.020Z,25.80
2018-02-26T09:37:33.701Z,25.20
2018-02-26T09:40:03.141Z,25.00
2018-02-26T09:42:32.050Z,25.00
2018-02-26T09:45:00.740Z,23.00
2018-02-26T09:47:29.448Z,23.70
2018-02-26T09:50:03.485Z,23.20
2018-02-26T09:52:32.169Z,22.60
2018-02-26T09:55:01.638Z,24.90
2018-02-26T09:57:30.304Z,24.80
2018-02-26T09:59:58.997Z,26.00
2018-02-26T10:02:27.680Z,25.60
2018-02-26T10:04:56.332Z,25.70
2018-02-26T10:07:25.011Z,26.00
2018-02-26T10:09:53.714Z,25.80
2018-02-26T10:12:22.382Z,26.30
2018-02-26T10:14:51.837Z,26.50
2018-02-26T10:17:20.494Z,26.40
2018-02-26T10:19:49.169Z,26.90
2018-02-26T10:22:17.835Z,27.60
2018-02-26T10:24:46.514Z,27.90
2018-02-26T10:27:15.473Z,28.20
2018-02-26T10:29:44.125Z,28.80
2018-02-26T10:32:12.789Z,28.70
2018-02-26T10:34:42.241Z,29.10
2018-02-26T10:37:11.213Z,29.10
2018-02-26T10:39:39.882Z,29.50
2018-02-26T10:42:09.353Z,28.60
2018-02-26T10:44:38.014Z,28.50
2018-02-26T10:47:06.717Z,28.30
2018-02-26T10:49:35.401Z,29.10
2018-02-26T10:52:04.112Z,30.00
2018-02-26T10:54:32.787Z,29.60
2018-02-26T10:57:01.494Z,29.80
2018-02-26T10:59:30.920Z,31.40
2018-02-26T11:01:59.607Z,31.40
2018-02-26T11:04:28.292Z,30.10
2018-02-26T11:06:56.984Z,30.00
2018-02-26T11:09:25.657Z,29.90
2018-02-26T11:11:55.094Z,30.30
2018-02-26T11:14:24.047Z,30.20
2018-02-26T11:16:53.481Z,31.40
2018-02-26T11:19:22.202Z,31.30
2018-02-26T11:21:50.891Z,30.70
2018-02-26T11:24:19.580Z,31.20
2018-02-26T11:26:48.248Z,30.00
2018-02-26T11:29:16.949Z,30.10
2018-02-26T11:31:45.623Z,30.00
2018-02-26T11:34:14.291Z,29.90
2018-02-26T11:36:42.954Z,29.30
2018-02-26T11:39:11.616Z,30.10
2018-02-26T11:41:40.319Z,29.40
2018-02-26T11:44:09.738Z,29.40
2018-02-26T11:46:38.397Z,29.40
2018-02-26T11:49:07.857Z,29.20
2018-02-26T11:51:36.510Z,29.20
2018-02-26T11:54:05.946Z,28.60
2018-02-26T11:56:34.849Z,28.60
2018-02-26T11:59:03.326Z,28.90
2018-02-26T12:01:32.008Z,28.60
2018-02-26T12:04:00.677Z,28.30
2018-02-26T12:06:29.409Z,29.20
2018-02-26T12:08:58.072Z,28.10
2018-02-26T12:11:26.753Z,28.60
2018-02-26T12:13:55.665Z,28.40
2018-02-26T12:16:24.357Z,28.20
2018-02-26T12:18:53.021Z,27.70
2018-02-26T12:21:21.714Z,27.50
2018-02-26T12:23:50.376Z,27.70
2018-02-26T12:26:19.041Z,29.40
2018-02-26T12:28:48.458Z,29.90
2018-02-26T12:31:16.800Z,29.80
2018-02-26T12:33:45.466Z,31.20
2018-02-26T12:36:14.140Z,30.90
2018-02-26T12:38:42.830Z,31.80
2018-02-26T12:41:11.506Z,32.00
2018-02-26T12:43:40.311Z,31.40
2018-02-26T12:46:08.978Z,31.20
2018-02-26T12:48:37.657Z,32.20
2018-02-26T12:51:06.328Z,32.60
2018-02-26T12:53:35.557Z,32.90
2018-02-26T12:56:04.229Z,32.90
2018-02-26T12:58:32.910Z,33.50
2018-02-26T13:01:01.587Z,33.20
2018-02-26T13:03:30.270Z,32.70
2018-02-26T13:05:58.934Z,33.50
2018-02-26T13:08:27.649Z,32.10
2018-02-26T13:10:56.303Z,33.20
2018-02-26T13:13:24.986Z,34.20
2018-02-26T13:15:53.660Z,33.40
2018-02-26T13:18:22.349Z,34.80
2018-02-26T13:20:51.007Z,36.20
2018-02-26T13:23:19.661Z,39.00
2018-02-26T13:25:48.346Z,40.10
2018-02-26T13:28:17.791Z,44.40
2018-02-26T13:30:46.497Z,44.30
2018-02-26T13:33:15.193Z,48.60
2018-02-26T13:35:44.930Z,51.70
2018-02-26T13:38:14.437Z,53.40
2018-02-26T13:40:43.138Z,53.40
2018-02-26T13:43:11.824Z,52.00
2018-02-26T13:45:40.531Z,52.50
2018-02-26T13:48:09.245Z,56.00
2018-02-26T13:50:37.984Z,55.60
2018-02-26T13:53:06.679Z,55.40
2018-02-26T13:55:35.381Z,56.30
2018-02-26T13:58:04.143Z,56.70
2018-02-26T14:00:32.820Z,58.00
2018-02-26T14:03:01.491Z,59.20
2018-02-26T14:05:30.180Z,58.60
2018-02-26T14:07:58.874Z,58.90
2018-02-26T14:10:28.305Z,60.10
2018-02-26T14:12:57.010Z,60.10
2018-02-26T14:15:25.671Z,60.50
2018-02-26T14:17:54.337Z,61.40
2018-02-26T14:20:23.798Z,62.80
2018-02-26T14:22:52.497Z,62.80
2018-02-26T14:25:21.181Z,64.50
2018-02-26T14:27:49.849Z,66.10
2018-02-26T14:30:18.515Z,69.00
2018-02-26T14:32:47.169Z,68.80
2018-02-26T14:35:15.833Z,68.60
2018-02-26T14:37:44.501Z,69.50
2018-02-26T14:40:13.154Z,69.70
2018-02-26T14:42:41.813Z,69.30
2018-02-26T14:45:10.314Z,69.60
2018-02-26T14:47:38.981Z,70.40
2018-02-26T14:50:07.683Z,70.70
2018-02-26T14:52:37.129Z,71.00
2018-02-26T14:55:05.581Z,71.00
2018-02-26T14:57:34.309Z,70.90
2018-02-26T15:00:02.781Z,70.00
2018-02-26T15:02:31.444Z,70.70
2018-02-26T15:05:00.114Z,71.10
2018-02-26T15:07:29.561Z,72.00
2018-02-26T15:09:58.233Z,72.00
2018-02-26T15:12:26.880Z,73.50
2018-02-26T15:14:56.341Z,73.40
2018-02-26T15:17:24.986Z,73.20
2018-02-26T15:19:54.497Z,73.00
2018-02-26T15:22:23.156Z,72.90
2018-02-26T15:24:51.817Z,72.70
2018-02-26T15:27:20.472Z,71.30
2018-02-26T15:29:49.113Z,71.00
2018-02-26T15:32:17.774Z,70.30
2018-02-26T15:34:46.441Z,69.70
2018-02-26T15:37:15.098Z,71.20
2018-02-26T15:39:44.535Z,67.90
2018-02-26T15:42:13.200Z,67.90
2018-02-26T15:44:41.840Z,65.50
2018-02-26T15:47:10.495Z,65.40
2018-02-26T15:49:39.164Z,65.40
2018-02-26T15:52:07.851Z,63.90
2018-02-26T15:54:36.501Z,66.20
2018-02-26T15:57:05.154Z,66.10
2018-02-26T15:59:33.842Z,63.40
2018-02-26T16:02:02.552Z,62.20
2018-02-26T16:04:31.192Z,60.10
2018-02-26T16:06:59.840Z,60.90
2018-02-26T16:09:29.265Z,59.40
2018-02-26T16:11:57.938Z,59.40
2018-02-26T16:14:27.373Z,59.20
2018-02-26T16:16:56.029Z,59.10
2018-02-26T16:19:24.701Z,60.10
2018-02-26T16:21:53.357Z,59.80
2018-02-26T16:24:22.025Z,58.70
2018-02-26T16:26:50.740Z,57.40
2018-02-26T16:29:19.415Z,57.60
2018-02-26T16:31:48.103Z,56.60
2018-02-26T16:34:16.768Z,56.30
2018-02-26T16:36:45.416Z,57.00
2018-02-26T16:39:14.828Z,56.40
2018-02-26T16:41:44.250Z,54.90
2018-02-26T16:44:12.897Z,54.90
2018-02-26T16:46:41.573Z,55.70
2018-02-26T16:49:10.389Z,55.10
2018-02-26T16:51:39.107Z,55.50
2018-02-26T16:54:12.252Z,55.10
2018-02-26T16:56:40.988Z,55.30
2018-02-26T16:59:09.697Z,55.10
2018-02-26T17:01:38.433Z,54.90
2018-02-26T17:04:07.149Z,54.50
2018-02-26T17:06:35.862Z,54.00
2018-02-26T17:09:03.750Z,54.30
2018-02-26T17:11:32.469Z,54.10
2018-02-26T17:14:01.164Z,53.80
2018-02-26T17:16:29.726Z,53.90
2018-02-26T17:18:59.179Z,54.90
2018-02-26T17:21:27.912Z,54.90
2018-02-26T17:23:57.295Z,72.10
2018-02-26T17:26:26.019Z,72.10
2018-02-26T17:28:54.721Z,68.00
2018-02-26T17:31:23.409Z,64.90
2018-02-26T17:33:52.173Z,66.20
2018-02-26T17:36:20.887Z,65.30
2018-02-26T17:38:49.583Z,59.10
2018-02-26T17:41:18.306Z,59.20
2018-02-26T17:43:46.993Z,59.90
2018-02-26T17:46:15.696Z,59.10
2018-02-26T17:48:45.215Z,59.40
2018-02-26T17:51:14.691Z,59.30
2018-02-26T17:53:43.403Z,59.40
2018-02-26T17:56:12.876Z,57.50
2018-02-26T17:58:41.553Z,57.70
2018-02-26T18:01:10.229Z,56.30
2018-02-26T18:03:38.893Z,56.00
2018-02-26T18:06:07.561Z,55.10
2018-02-26T18:08:37.050Z,54.50
2018-02-26T18:11:05.766Z,54.40
2018-02-26T18:13:34.427Z,54.20
2018-02-26T18:16:03.119Z,53.50
2018-02-26T18:18:32.555Z,54.80
2018-02-26T18:21:01.215Z,54.80
2018-02-26T18:23:30.696Z,55.30
2018-02-26T18:25:59.384Z,55.30
2018-02-26T18:28:28.083Z,55.40
2018-02-26T19:00:35.147Z,59.10
2018-02-26T19:03:03.852Z,58.00
2018-02-26T19:05:32.559Z,57.30
2018-02-26T19:08:02.019Z,59.80
2018-02-26T19:10:30.730Z,59.80
2018-02-26T19:12:59.519Z,58.50
2018-02-26T19:15:28.233Z,58.00
2018-02-26T19:17:57.801Z,57.10
2018-02-26T19:20:26.491Z,57.10
2018-02-26T19:22:55.182Z,56.20
2018-02-26T19:25:23.900Z,55.40
2018-02-26T19:27:52.590Z,55.30
2018-02-26T19:30:22.109Z,56.00
2018-02-26T19:32:50.977Z,56.00
2018-02-26T19:35:20.414Z,61.70
2018-02-26T19:37:48.886Z,61.80
2018-02-26T19:40:18.616Z,59.70
2018-02-26T19:42:47.329Z,58.30
2018-02-26T19:45:16.026Z,56.60
2018-02-26T19:47:45.021Z,56.70
2018-02-26T19:50:13.713Z,55.00
2018-02-26T19:52:42.369Z,55.10
2018-02-26T19:55:11.066Z,54.90
2018-02-26T19:57:39.764Z,58.60
2018-02-26T20:00:08.450Z,61.90
2018-02-26T20:02:37.186Z,61.10
2018-02-26T20:05:06.029Z,59.10
2018-02-26T20:07:35.105Z,57.20
2018-02-26T20:10:03.470Z,56.00
2018-02-26T20:12:32.172Z,56.50
2018-02-26T20:15:00.664Z,56.10
2018-02-26T20:17:29.377Z,56.80
2018-02-26T20:19:58.096Z,56.00
2018-02-26T20:22:26.771Z,55.50
2018-02-26T20:24:56.297Z,54.40
2018-02-26T20:27:25.762Z,54.30
2018-02-26T20:29:54.611Z,54.60
2018-02-26T20:32:23.476Z,54.20
2018-02-26T20:34:52.172Z,53.80
2018-02-26T20:37:21.083Z,55.20
2018-02-26T20:39:50.212Z,54.40
2018-02-26T20:42:19.968Z,54.60
2018-02-26T20:44:48.732Z,54.50
2018-02-26T20:47:18.560Z,53.80
2018-02-26T20:49:48.083Z,53.50
2018-02-26T20:52:16.795Z,53.40
2018-02-26T20:57:11.229Z,52.30
2018-02-26T20:59:40.208Z,52.70
2018-02-26T21:02:09.143Z,53.50
2018-02-26T21:04:38.594Z,53.00
2018-02-26T21:07:07.245Z,52.40
2018-02-26T21:09:35.935Z,52.40
2018-02-26T21:12:04.869Z,52.10
2018-02-26T21:14:33.646Z,51.80
2018-02-26T21:17:03.350Z,53.80
2018-02-26T21:19:32.070Z,53.70
2018-02-26T21:22:01.147Z,52.80
2018-02-26T21:24:29.849Z,52.70
2018-02-26T21:26:58.541Z,52.50
2018-02-26T21:29:27.199Z,51.90
2018-02-26T21:31:55.920Z,51.80
2018-02-26T21:34:24.761Z,51.90
2018-02-26T21:36:54.105Z,51.40
2018-02-26T21:39:23.379Z,51.80
2018-02-26T21:41:52.520Z,51.70
2018-02-26T21:44:21.757Z,51.60
2018-02-26T21:46:51.026Z,51.90
2018-02-26T21:49:21.009Z,51.00
2018-02-26T21:51:49.664Z,51.00
2018-02-26T21:54:18.588Z,51.20
2018-02-26T21:56:47.505Z,50.90
2018-02-26T21:59:16.318Z,51.70
2018-02-26T22:01:46.076Z,51.40
2018-02-26T22:04:15.099Z,51.40
2018-02-26T22:06:43.790Z,50.60
2018-02-26T22:09:12.753Z,51.10
2018-02-26T22:11:41.453Z,51.30
2018-02-26T22:14:10.409Z,51.00
2018-02-26T22:16:39.440Z,51.00
2018-02-26T22:19:07.967Z,51.20
2018-02-26T22:21:36.637Z,50.50
2018-02-26T22:24:06.087Z,50.80
2018-02-26T22:26:34.935Z,50.80
2018-02-26T22:29:04.761Z,50.50
2018-02-26T22:31:33.305Z,50.40
2018-02-26T22:34:02.143Z,50.50
2018-02-26T22:36:30.869Z,50.60
2018-02-26T22:39:00.467Z,50.30
2018-02-26T22:41:30.537Z,50.30
2018-02-26T22:43:59.723Z,50.30
2018-02-26T22:46:28.768Z,50.50
2018-02-26T22:48:57.710Z,50.60
2018-02-26T22:51:27.301Z,50.30
2018-02-26T22:53:58.211Z,50.20
2018-02-26T22:56:26.897Z,50.40
2018-02-26T22:58:56.697Z,50.00
2018-02-26T23:01:25.830Z,50.20
2018-02-26T23:03:54.533Z,50.60
2018-02-26T23:06:23.209Z,49.90
2018-02-26T23:08:51.897Z,49.50
2018-02-26T23:11:20.642Z,49.50
2018-02-26T23:13:49.370Z,49.90
2018-02-26T23:16:18.176Z,49.80
2018-02-26T23:18:46.785Z,50.00
2018-02-26T23:21:16.291Z,49.30
2018-02-26T23:23:45.750Z,49.20
2018-02-26T23:26:14.452Z,49.20
2018-02-26T23:28:43.340Z,49.20
2018-02-26T23:31:12.274Z,49.60
2018-02-26T23:33:40.985Z,49.80
2018-02-26T23:36:09.653Z,49.80
2018-02-26T23:38:38.576Z,49.20
2018-02-26T23:41:07.249Z,49.20
2018-02-26T23:43:35.980Z,50.00
2018-02-26T23:46:05.313Z,49.50
2018-02-26T23:48:34.755Z,49.70
2018-02-26T23:51:03.456Z,49.70
2018-02-26T23:53:31.793Z,48.90
2018-02-26T23:56:00.293Z,49.00
2018-02-26T23:58:29.662Z,48.50
